Time;durP1;ratioP1;P1;durP2;ratioP2;P2;SDS_P1;SDS_P2;PMS_P1;PMS_P2;Temp;Humidity;BMP_temperature;BMP_pressure;BME280_temperature;BME280_humidity;BME280_pressure;Samples;Min_cycle;Max_cycle;Signal;HPM_P1;HPM_P2
2023/07/02 00:01:23;;;;;;;;;;;12.50;99.90;;;;;;5092719;28;19935;-64
2023/07/02 00:03:50;;;;;;;;;;;12.60;99.90;;;;;;5092582;28;19912;-63
2023/07/02 00:06:18;;;;;;;;;;;12.60;99.90;;;;;;5092370;28;19919;-65
2023/07/02 00:08:44;;;;;;;;;;;12.70;99.90;;;;;;5092483;28;20062;-63
2023/07/02 00:11:12;;;;;;;;;;;12.90;99.90;;;;;;5092592;28;20007;-63
2023/07/02 00:13:39;;;;;;;;;;;12.90;99.90;;;;;;5092623;28;19953;-63
2023/07/02 00:16:05;;;;;;;;;;;13.00;99.90;;;;;;5092575;28;19908;-63
2023/07/02 00:18:33;;;;;;;;;;;13.20;99.80;;;;;;5092653;28;19924;-63
2023/07/02 00:21:03;;;;;;;;;;;13.20;99.80;;;;;;5092345;28;19908;-63
2023/07/02 00:23:30;;;;;;;;;;;13.40;99.40;;;;;;5092496;28;19908;-65
2023/07/02 00:25:57;;;;;;;;;;;13.40;99.50;;;;;;5092758;28;19915;-63
2023/07/02 00:28:24;;;;;;;;;;;13.50;99.50;;;;;;5092593;28;20314;-64
2023/07/02 00:30:50;;;;;;;;;;;13.60;99.40;;;;;;5092548;28;20295;-62
2023/07/02 00:33:17;;;;;;;;;;;13.70;99.50;;;;;;5092528;28;20365;-62
2023/07/02 00:35:44;;;;;;;;;;;13.70;99.50;;;;;;5092297;28;20003;-64
2023/07/02 00:38:10;;;;;;;;;;;13.80;99.50;;;;;;5092308;28;20357;-63
2023/07/02 00:40:37;;;;;;;;;;;13.80;99.40;;;;;;5092242;28;19908;-63
2023/07/02 00:43:04;;;;;;;;;;;13.90;99.40;;;;;;5092850;28;19966;-64
2023/07/02 00:45:31;;;;;;;;;;;14.00;99.30;;;;;;5095624;28;19995;-63
2023/07/02 00:47:58;;;;;;;;;;;14.00;99.40;;;;;;5095949;28;19954;-63
2023/07/02 00:50:25;;;;;;;;;;;14.10;99.30;;;;;;5096072;28;20001;-63
2023/07/02 00:52:53;;;;;;;;;;;14.30;99.30;;;;;;5095905;28;19916;-63
2023/07/02 00:55:20;;;;;;;;;;;14.40;98.90;;;;;;5095717;28;19970;-64
2023/07/02 00:57:47;;;;;;;;;;;14.50;98.80;;;;;;5095616;28;19965;-64
2023/07/02 01:00:14;;;;;;;;;;;14.60;98.70;;;;;;5095505;28;19951;-64
2023/07/02 01:02:43;;;;;;;;;;;14.80;98.70;;;;;;5095804;28;20515;-65
2023/07/02 01:05:21;;;;;;;;;;;15.00;98.50;;;;;;5095734;28;19916;-63
2023/07/02 01:07:48;;;;;;;;;;;15.00;98.50;;;;;;5095391;28;19908;-63
2023/07/02 01:10:14;;;;;;;;;;;15.30;98.40;;;;;;5095209;28;19908;-64
2023/07/02 01:12:41;;;;;;;;;;;15.40;98.50;;;;;;5095586;28;20353;-63
2023/07/02 01:15:08;;;;;;;;;;;15.50;98.30;;;;;;5095497;28;19916;-64
2023/07/02 01:17:41;;;;;;;;;;;15.50;98.30;;;;;;5095442;28;20932;-64
2023/07/02 01:20:09;;;;;;;;;;;15.60;98.00;;;;;;5095264;28;20349;-63
2023/07/02 01:22:36;;;;;;;;;;;15.60;98.00;;;;;;5095430;28;19908;-64
2023/07/02 01:25:03;;;;;;;;;;;15.80;97.90;;;;;;5095577;28;19912;-66
2023/07/02 01:27:29;;;;;;;;;;;15.90;97.80;;;;;;5095557;28;19950;-64
2023/07/02 01:29:56;;;;;;;;;;;16.00;97.70;;;;;;5095265;28;19915;-63
2023/07/02 01:32:23;;;;;;;;;;;16.00;97.60;;;;;;5094836;28;20358;-65
2023/07/02 01:34:53;;;;;;;;;;;16.00;97.60;;;;;;5095070;28;19908;-63
2023/07/02 01:37:19;;;;;;;;;;;16.10;97.70;;;;;;5094769;28;19919;-64
2023/07/02 01:39:46;;;;;;;;;;;16.20;97.80;;;;;;5094998;28;19947;-63
2023/07/02 01:42:17;;;;;;;;;;;16.30;97.30;;;;;;5094981;28;20388;-63
2023/07/02 01:44:44;;;;;;;;;;;16.50;97.00;;;;;;5094757;28;19920;-63
2023/07/02 01:47:10;;;;;;;;;;;16.60;96.90;;;;;;5094902;28;19908;-64
2023/07/02 01:49:37;;;;;;;;;;;16.70;97.00;;;;;;5094762;28;20329;-63
2023/07/02 01:52:04;;;;;;;;;;;16.90;97.30;;;;;;5094825;28;20367;-63
2023/07/02 01:54:32;;;;;;;;;;;17.00;96.30;;;;;;5094818;28;20276;-65
2023/07/02 01:56:59;;;;;;;;;;;17.10;95.80;;;;;;5094512;28;19908;-66
2023/07/02 01:59:26;;;;;;;;;;;17.20;95.40;;;;;;5094515;28;19912;-64
2023/07/02 02:01:52;;;;;;;;;;;17.30;95.40;;;;;;5094363;28;19915;-63
2023/07/02 02:04:19;;;;;;;;;;;17.40;95.10;;;;;;5094645;28;20265;-64
2023/07/02 02:06:46;;;;;;;;;;;17.40;95.00;;;;;;5094525;28;20371;-63
2023/07/02 02:09:12;;;;;;;;;;;17.60;95.10;;;;;;5094765;28;20326;-63
2023/07/02 02:11:40;;;;;;;;;;;17.70;95.20;;;;;;5094360;28;19908;-66
2023/07/02 02:14:07;;;;;;;;;;;17.80;95.10;;;;;;5094452;28;19912;-64
2023/07/02 02:16:36;;;;;;;;;;;17.80;94.80;;;;;;5094503;28;19919;-65
2023/07/02 02:19:03;;;;;;;;;;;17.80;94.80;;;;;;5094176;28;19916;-64
2023/07/02 02:21:29;;;;;;;;;;;17.60;95.00;;;;;;5094588;28;20268;-64
2023/07/02 02:23:56;;;;;;;;;;;17.50;94.90;;;;;;5093988;28;20438;-64
2023/07/02 02:26:25;;;;;;;;;;;17.40;95.00;;;;;;5094175;28;19912;-64
2023/07/02 02:28:52;;;;;;;;;;;17.20;95.20;;;;;;5094086;28;19908;-66
2023/07/02 02:31:18;;;;;;;;;;;17.40;95.30;;;;;;5093855;28;19912;-67
2023/07/02 02:33:45;;;;;;;;;;;17.60;95.20;;;;;;5093731;28;20310;-66
2023/07/02 02:36:11;;;;;;;;;;;17.80;94.90;;;;;;5093886;28;19994;-67
2023/07/02 02:38:38;;;;;;;;;;;18.10;94.40;;;;;;5093704;28;20003;-64
2023/07/02 02:41:08;;;;;;;;;;;18.40;94.10;;;;;;5093702;28;20423;-63
2023/07/02 02:43:34;;;;;;;;;;;18.50;93.40;;;;;;5093675;28;20349;-63
2023/07/02 02:46:01;;;;;;;;;;;18.60;93.10;;;;;;5093699;28;20304;-64
2023/07/02 02:48:28;;;;;;;;;;;18.70;92.80;;;;;;5093753;28;19908;-63
2023/07/02 02:50:54;;;;;;;;;;;18.50;93.10;;;;;;5075458;28;20369;-65
2023/07/02 02:53:21;;;;;;;;;;;18.40;93.10;;;;;;5093299;28;19915;-64
2023/07/02 02:55:48;;;;;;;;;;;18.20;93.70;;;;;;5093330;28;19914;-64
2023/07/02 02:58:14;;;;;;;;;;;18.30;93.80;;;;;;5093499;28;19915;-63
2023/07/02 03:00:45;;;;;;;;;;;18.60;93.70;;;;;;5093474;28;19908;-66
2023/07/02 03:03:16;;;;;;;;;;;19.30;92.60;;;;;;5093296;28;19944;-62
2023/07/02 03:05:45;;;;;;;;;;;19.60;92.40;;;;;;5092841;28;20448;-63
2023/07/02 03:08:11;;;;;;;;;;;20.00;92.40;;;;;;5093072;28;19912;-65
2023/07/02 03:10:38;;;;;;;;;;;20.60;91.50;;;;;;5093171;28;19908;-65
2023/07/02 03:13:04;;;;;;;;;;;21.00;90.40;;;;;;5093274;28;19909;-63
2023/07/02 03:15:31;;;;;;;;;;;20.90;90.20;;;;;;5093270;28;19908;-64
2023/07/02 03:17:58;;;;;;;;;;;20.70;90.80;;;;;;5092804;28;20430;-65
2023/07/02 03:20:25;;;;;;;;;;;20.60;90.40;;;;;;5093064;28;20371;-63
2023/07/02 03:22:51;;;;;;;;;;;20.50;90.40;;;;;;5093285;28;19991;-64
2023/07/02 03:25:18;;;;;;;;;;;20.80;90.30;;;;;;5093209;28;19959;-66
2023/07/02 03:27:44;;;;;;;;;;;21.10;89.80;;;;;;5092753;28;20292;-67
2023/07/02 03:30:11;;;;;;;;;;;21.70;88.70;;;;;;5093305;28;19916;-66
2023/07/02 03:32:38;;;;;;;;;;;22.30;85.60;;;;;;5093268;28;20030;-66
2023/07/02 03:35:04;;;;;;;;;;;22.70;84.50;;;;;;5092959;28;20002;-68
2023/07/02 03:37:31;;;;;;;;;;;22.70;85.50;;;;;;5092788;28;20410;-66
2023/07/02 03:39:58;;;;;;;;;;;23.50;84.00;;;;;;5093009;28;20277;-66
2023/07/02 03:42:25;;;;;;;;;;;24.40;80.80;;;;;;5092960;28;19908;-66
2023/07/02 03:44:51;;;;;;;;;;;25.30;78.90;;;;;;5092882;28;20061;-68
2023/07/02 03:47:19;;;;;;;;;;;26.40;75.40;;;;;;5092627;28;20388;-66
2023/07/02 03:49:46;;;;;;;;;;;26.80;74.80;;;;;;5092471;28;19909;-67
2023/07/02 03:52:12;;;;;;;;;;;27.40;73.00;;;;;;5092790;28;19915;-67
2023/07/02 03:54:39;;;;;;;;;;;27.60;71.80;;;;;;5092673;28;19908;-67
2023/07/02 03:57:06;;;;;;;;;;;27.90;70.40;;;;;;5092658;28;20249;-67
2023/07/02 03:59:32;;;;;;;;;;;28.00;70.00;;;;;;5092804;28;19916;-67
2023/07/02 04:01:59;;;;;;;;;;;27.80;70.30;;;;;;5092729;28;19907;-67
2023/07/02 04:04:26;;;;;;;;;;;28.00;69.40;;;;;;5092817;28;19908;-68
2023/07/02 04:06:52;;;;;;;;;;;27.80;69.80;;;;;;5092692;28;19915;-69
2023/07/02 04:09:19;;;;;;;;;;;27.60;70.00;;;;;;5092443;28;19908;-66
2023/07/02 04:11:46;;;;;;;;;;;26.80;70.10;;;;;;5092688;28;20007;-66
2023/07/02 04:14:13;;;;;;;;;;;25.70;72.90;;;;;;5092633;28;20374;-66
2023/07/02 04:16:39;;;;;;;;;;;24.30;75.70;;;;;;5092538;28;19912;-68
2023/07/02 04:19:06;;;;;;;;;;;23.30;77.50;;;;;;5094686;28;19917;-66
2023/07/02 04:21:32;;;;;;;;;;;22.30;80.40;;;;;;5096435;28;19915;-65
2023/07/02 04:23:59;;;;;;;;;;;21.40;81.40;;;;;;5096453;28;20012;-67
2023/07/02 04:26:26;;;;;;;;;;;20.60;84.20;;;;;;5096404;28;19912;-68
2023/07/02 04:28:54;;;;;;;;;;;20.00;86.00;;;;;;5096021;28;19908;-66
2023/07/02 04:31:22;;;;;;;;;;;19.30;88.20;;;;;;5096181;28;19908;-65
2023/07/02 04:33:48;;;;;;;;;;;18.90;89.60;;;;;;5096407;28;20341;-66
2023/07/02 04:36:15;;;;;;;;;;;18.70;90.20;;;;;;5096333;28;19962;-66
2023/07/02 04:38:42;;;;;;;;;;;18.50;91.10;;;;;;5096115;28;20325;-67
2023/07/02 04:41:10;;;;;;;;;;;18.20;91.20;;;;;;5096264;28;19909;-66
2023/07/02 04:43:37;;;;;;;;;;;18.10;91.50;;;;;;5096040;28;19908;-68
2023/07/02 04:46:06;;;;;;;;;;;18.00;92.00;;;;;;5095543;28;20007;-66
2023/07/02 04:48:33;;;;;;;;;;;17.90;92.20;;;;;;5095965;28;20276;-66
2023/07/02 04:51:00;;;;;;;;;;;17.90;92.20;;;;;;5077648;28;19908;-65
2023/07/02 04:53:27;;;;;;;;;;;17.80;92.00;;;;;;5095922;28;19954;-63
2023/07/02 04:55:53;;;;;;;;;;;17.70;92.20;;;;;;5095941;28;20411;-65
2023/07/02 04:58:20;;;;;;;;;;;17.90;92.40;;;;;;5095408;28;20061;-66
2023/07/02 05:00:47;;;;;;;;;;;17.90;92.50;;;;;;5095924;28;19908;-64
2023/07/02 05:03:14;;;;;;;;;;;18.00;92.80;;;;;;5095672;28;19907;-68
2023/07/02 05:05:40;;;;;;;;;;;18.10;92.80;;;;;;5095826;28;19912;-66
2023/07/02 05:08:07;;;;;;;;;;;18.00;92.70;;;;;;5095539;28;19935;-64
2023/07/02 05:10:34;;;;;;;;;;;18.00;92.60;;;;;;5095327;28;19908;-63
2023/07/02 05:13:00;;;;;;;;;;;17.90;92.60;;;;;;5095673;28;19912;-66
2023/07/02 05:15:27;;;;;;;;;;;17.90;92.80;;;;;;5095548;28;20003;-66
2023/07/02 05:17:54;;;;;;;;;;;18.00;92.90;;;;;;5095603;28;19958;-64
2023/07/02 05:20:20;;;;;;;;;;;17.90;92.70;;;;;;5095373;28;19912;-64
2023/07/02 05:22:47;;;;;;;;;;;17.90;92.90;;;;;;5095655;28;19915;-64
2023/07/02 05:25:14;;;;;;;;;;;17.70;93.10;;;;;;5094911;28;19958;-63
2023/07/02 05:27:40;;;;;;;;;;;17.60;93.30;;;;;;5095264;28;19955;-63
2023/07/02 05:30:07;;;;;;;;;;;17.60;93.60;;;;;;5094497;28;19970;-64
2023/07/02 05:32:34;;;;;;;;;;;17.60;94.00;;;;;;5095054;28;19955;-63
2023/07/02 05:35:01;;;;;;;;;;;17.60;93.70;;;;;;5094721;28;19908;-66
2023/07/02 05:37:27;;;;;;;;;;;17.50;93.90;;;;;;5094935;28;19955;-66
2023/07/02 05:39:54;;;;;;;;;;;17.80;93.90;;;;;;5094626;28;19908;-67
2023/07/02 05:42:20;;;;;;;;;;;17.90;93.80;;;;;;5094961;28;20384;-64
2023/07/02 05:44:47;;;;;;;;;;;18.10;93.40;;;;;;5094791;28;19920;-64
2023/07/02 05:47:14;;;;;;;;;;;18.00;93.30;;;;;;5094857;28;19908;-66
2023/07/02 05:49:42;;;;;;;;;;;18.10;93.10;;;;;;5094713;28;19908;-66
2023/07/02 05:52:09;;;;;;;;;;;18.10;93.10;;;;;;5094859;28;19916;-67
2023/07/02 05:54:38;;;;;;;;;;;18.10;92.90;;;;;;5094828;28;20433;-66
2023/07/02 05:57:05;;;;;;;;;;;18.10;92.70;;;;;;5094652;28;19908;-64
2023/07/02 05:59:32;;;;;;;;;;;18.30;92.70;;;;;;5094455;28;19912;-65
2023/07/02 06:01:58;;;;;;;;;;;18.40;92.40;;;;;;5094647;28;19908;-64
2023/07/02 06:04:25;;;;;;;;;;;18.40;92.50;;;;;;5094333;28;19915;-64
2023/07/02 06:06:51;;;;;;;;;;;18.50;92.70;;;;;;5094538;28;19915;-65
2023/07/02 06:09:18;;;;;;;;;;;18.70;92.90;;;;;;5094590;28;19908;-62
2023/07/02 06:11:45;;;;;;;;;;;19.10;92.10;;;;;;5094547;28;19909;-64
2023/07/02 06:14:11;;;;;;;;;;;19.40;91.30;;;;;;5094526;28;20280;-64
2023/07/02 06:16:38;;;;;;;;;;;19.30;91.10;;;;;;5094358;28;20336;-66
2023/07/02 06:19:05;;;;;;;;;;;18.80;91.70;;;;;;5094012;28;19961;-64
2023/07/02 06:21:31;;;;;;;;;;;18.50;92.00;;;;;;5094237;28;19911;-63
2023/07/02 06:23:58;;;;;;;;;;;18.20;92.40;;;;;;5094247;28;19909;-64
2023/07/02 06:26:25;;;;;;;;;;;17.80;93.00;;;;;;5093947;28;20411;-64
2023/07/02 06:28:52;;;;;;;;;;;17.50;93.20;;;;;;5094050;28;19908;-64
2023/07/02 06:31:18;;;;;;;;;;;17.30;93.90;;;;;;5093524;28;19911;-64
2023/07/02 06:33:45;;;;;;;;;;;17.00;94.10;;;;;;5093964;28;19912;-64
2023/07/02 06:36:13;;;;;;;;;;;16.80;94.80;;;;;;5093800;28;20015;-65
2023/07/02 06:38:39;;;;;;;;;;;16.50;95.10;;;;;;5093284;28;19951;-65
2023/07/02 06:41:06;;;;;;;;;;;16.30;95.40;;;;;;5093184;28;19955;-65
2023/07/02 06:43:33;;;;;;;;;;;16.10;95.70;;;;;;5093886;28;20340;-65
2023/07/02 06:45:59;;;;;;;;;;;15.90;96.10;;;;;;5093758;28;19927;-64
2023/07/02 06:48:26;;;;;;;;;;;15.70;96.60;;;;;;5093418;28;19908;-67
2023/07/02 06:50:53;;;;;;;;;;;15.60;96.90;;;;;;5093621;28;19927;-65
2023/07/02 06:53:19;;;;;;;;;;;15.40;97.20;;;;;;5093589;28;19908;-64
2023/07/02 06:55:46;;;;;;;;;;;15.40;97.40;;;;;;5093475;28;19915;-67
2023/07/02 06:58:12;;;;;;;;;;;15.20;97.50;;;;;;5093371;28;20020;-62
2023/07/02 07:00:39;;;;;;;;;;;15.10;97.70;;;;;;5093422;28;19998;-63
2023/07/02 07:03:06;;;;;;;;;;;14.90;98.00;;;;;;5093331;28;19908;-65
2023/07/02 07:05:32;;;;;;;;;;;14.80;98.20;;;;;;5093271;28;19915;-64
2023/07/02 07:08:03;;;;;;;;;;;14.80;98.50;;;;;;5093321;28;19915;-65
2023/07/02 07:10:33;;;;;;;;;;;14.70;98.90;;;;;;5093010;28;19916;-66
2023/07/02 07:13:04;;;;;;;;;;;14.60;99.00;;;;;;5093244;28;19908;-65
2023/07/02 07:15:33;;;;;;;;;;;14.60;99.20;;;;;;5093266;28;20415;-64
2023/07/02 07:18:00;;;;;;;;;;;14.60;99.30;;;;;;5093210;28;19916;-65
2023/07/02 07:20:26;;;;;;;;;;;14.50;99.50;;;;;;5092735;28;19908;-65
2023/07/02 07:22:53;;;;;;;;;;;14.50;99.70;;;;;;5093158;28;19922;-63
2023/07/02 07:25:20;;;;;;;;;;;14.30;99.80;;;;;;5093109;28;19935;-64
2023/07/02 07:27:46;;;;;;;;;;;14.30;99.90;;;;;;5093046;28;19908;-65
2023/07/02 07:30:14;;;;;;;;;;;14.20;99.90;;;;;;5092829;28;19919;-65
2023/07/02 07:32:41;;;;;;;;;;;14.20;99.90;;;;;;5092980;28;20280;-64
2023/07/02 07:35:08;;;;;;;;;;;14.10;99.90;;;;;;5093514;28;19908;-64
2023/07/02 07:37:35;;;;;;;;;;;14.00;99.90;;;;;;5093181;28;19964;-66
2023/07/02 07:40:01;;;;;;;;;;;14.00;99.90;;;;;;5093032;28;19912;-64
2023/07/02 07:42:28;;;;;;;;;;;14.00;99.90;;;;;;5092870;28;19915;-65
2023/07/02 07:44:55;;;;;;;;;;;14.00;99.90;;;;;;5092997;28;19997;-63
2023/07/02 07:47:21;;;;;;;;;;;13.90;99.90;;;;;;5093001;28;19958;-64
2023/07/02 07:49:48;;;;;;;;;;;14.00;99.90;;;;;;5092830;28;19908;-65
2023/07/02 07:52:14;;;;;;;;;;;13.90;99.90;;;;;;5094122;28;19995;-64
2023/07/02 07:54:41;;;;;;;;;;;13.90;99.90;;;;;;5097054;28;19909;-66
2023/07/02 07:57:08;;;;;;;;;;;13.90;99.90;;;;;;5097144;28;19908;-67
2023/07/02 07:59:34;;;;;;;;;;;13.90;99.90;;;;;;5096962;28;19912;-65
2023/07/02 08:02:01;;;;;;;;;;;13.80;99.90;;;;;;5096916;28;19915;-68
2023/07/02 08:04:28;;;;;;;;;;;13.90;99.90;;;;;;5097078;28;19909;-66
2023/07/02 08:06:55;;;;;;;;;;;13.80;99.90;;;;;;5096771;28;19934;-64
2023/07/02 08:09:21;;;;;;;;;;;13.80;99.90;;;;;;5096699;28;20072;-65
2023/07/02 08:11:48;;;;;;;;;;;13.70;99.90;;;;;;5096785;28;19912;-66
2023/07/02 08:14:15;;;;;;;;;;;13.70;99.90;;;;;;5096644;28;20002;-66
2023/07/02 08:16:41;;;;;;;;;;;13.70;99.90;;;;;;5096600;28;19908;-64
2023/07/02 08:19:08;;;;;;;;;;;13.70;99.90;;;;;;5096424;28;19916;-64
2023/07/02 08:21:35;;;;;;;;;;;13.70;99.90;;;;;;5096608;28;19908;-64
2023/07/02 08:24:01;;;;;;;;;;;13.70;99.90;;;;;;5096554;28;20095;-64
2023/07/02 08:26:28;;;;;;;;;;;13.60;99.90;;;;;;5096679;28;19916;-63
2023/07/02 08:28:55;;;;;;;;;;;13.60;99.90;;;;;;5096300;28;19909;-63
2023/07/02 08:31:22;;;;;;;;;;;13.60;99.90;;;;;;5096175;28;19915;-63
2023/07/02 08:33:48;;;;;;;;;;;13.50;99.90;;;;;;5096454;28;20002;-66
2023/07/02 08:36:15;;;;;;;;;;;13.50;99.90;;;;;;5096307;28;19908;-65
2023/07/02 08:38:43;;;;;;;;;;;13.50;99.90;;;;;;5096096;28;20007;-64
2023/07/02 08:41:09;;;;;;;;;;;13.50;99.90;;;;;;5096168;28;19994;-67
2023/07/02 08:43:36;;;;;;;;;;;13.40;99.90;;;;;;5096348;28;19908;-66
2023/07/02 08:46:03;;;;;;;;;;;13.50;99.90;;;;;;5096046;28;19957;-65
2023/07/02 08:48:30;;;;;;;;;;;13.50;99.90;;;;;;5078166;28;19995;-66
2023/07/02 08:50:56;;;;;;;;;;;13.50;99.90;;;;;;5096127;28;19995;-65
2023/07/02 08:53:29;;;;;;;;;;;13.40;99.90;;;;;;5096180;28;19912;-67
2023/07/02 08:55:56;;;;;;;;;;;13.40;99.90;;;;;;5095796;28;19912;-63
2023/07/02 08:58:23;;;;;;;;;;;13.40;99.90;;;;;;5095646;28;19942;-63
2023/07/02 09:01:08;;;;;;;;;;;13.40;99.90;;;;;;5095636;28;19912;-65
2023/07/02 09:03:37;;;;;;;;;;;13.40;99.90;;;;;;5095131;28;20007;-64
2023/07/02 09:06:04;;;;;;;;;;;13.30;99.90;;;;;;5095488;28;19948;-65
2023/07/02 09:08:33;;;;;;;;;;;13.40;99.90;;;;;;5095541;28;19914;-64
2023/07/02 09:11:09;;;;;;;;;;;13.30;99.90;;;;;;5095562;28;19908;-64
2023/07/02 09:13:43;;;;;;;;;;;13.20;99.90;;;;;;5095479;28;19947;-64
2023/07/02 09:16:31;;;;;;;;;;;13.20;99.90;;;;;;5077373;28;19990;-64
2023/07/02 09:19:08;;;;;;;;;;;13.20;99.90;;;;;;5095305;28;19924;-63
2023/07/02 09:21:45;;;;;;;;;;;13.30;99.90;;;;;;5095554;28;20364;-64
2023/07/02 09:24:19;;;;;;;;;;;13.20;99.90;;;;;;5095144;28;20349;-64
2023/07/02 09:26:50;;;;;;;;;;;13.20;99.90;;;;;;5095172;28;19908;-64
2023/07/02 09:29:23;;;;;;;;;;;13.10;99.90;;;;;;5095133;28;19923;-64
2023/07/02 09:31:49;;;;;;;;;;;13.10;99.90;;;;;;5095186;28;20444;-63
2023/07/02 09:34:16;;;;;;;;;;;13.10;99.90;;;;;;5095117;28;19909;-64
2023/07/02 09:36:44;;;;;;;;;;;13.00;99.90;;;;;;5095256;28;19908;-62
2023/07/02 09:39:15;;;;;;;;;;;13.10;99.90;;;;;;5095041;28;19916;-62
2023/07/02 09:41:42;;;;;;;;;;;12.90;99.90;;;;;;5094958;28;19914;-64
2023/07/02 09:44:12;;;;;;;;;;;13.00;99.90;;;;;;5094692;28;19919;-63
2023/07/02 09:46:43;;;;;;;;;;;13.00;99.90;;;;;;5094917;28;20318;-63
2023/07/02 09:49:13;;;;;;;;;;;12.90;99.90;;;;;;5095094;28;19908;-63
2023/07/02 09:51:40;;;;;;;;;;;13.00;99.90;;;;;;5094837;28;20272;-64
2023/07/02 09:54:07;;;;;;;;;;;12.90;99.90;;;;;;5094710;28;19909;-66
2023/07/02 09:56:33;;;;;;;;;;;12.90;99.90;;;;;;5094766;28;19938;-63
2023/07/02 09:59:00;;;;;;;;;;;12.80;99.90;;;;;;5094587;28;19923;-64
2023/07/02 10:01:26;;;;;;;;;;;12.80;99.90;;;;;;5094616;28;19908;-63
2023/07/02 10:03:53;;;;;;;;;;;12.70;99.90;;;;;;5094500;28;20243;-62
2023/07/02 10:06:20;;;;;;;;;;;12.70;99.90;;;;;;5094405;28;19990;-63
2023/07/02 10:08:56;;;;;;;;;;;12.60;99.90;;;;;;5094363;28;19960;-63
2023/07/02 10:11:34;;;;;;;;;;;12.70;99.90;;;;;;5094638;28;20430;-62
2023/07/02 10:14:01;;;;;;;;;;;12.50;99.90;;;;;;5094387;28;20003;-63
2023/07/02 10:16:27;;;;;;;;;;;12.50;99.90;;;;;;5094177;28;19908;-65
2023/07/02 10:18:54;;;;;;;;;;;12.40;99.90;;;;;;5094169;28;19920;-63
2023/07/02 10:21:21;;;;;;;;;;;12.40;99.90;;;;;;5093835;28;20272;-64
2023/07/02 10:23:48;;;;;;;;;;;12.40;99.90;;;;;;5094094;28;19912;-63
2023/07/02 10:26:16;;;;;;;;;;;12.20;99.90;;;;;;5094201;28;20361;-63
2023/07/02 10:28:43;;;;;;;;;;;12.20;99.90;;;;;;5093960;28;19908;-64
2023/07/02 10:31:22;;;;;;;;;;;12.30;99.90;;;;;;5093967;28;19916;-64
2023/07/02 10:33:48;;;;;;;;;;;12.20;99.90;;;;;;5093978;28;19908;-64
2023/07/02 10:36:23;;;;;;;;;;;12.20;99.90;;;;;;5094084;28;19953;-62
2023/07/02 10:38:50;;;;;;;;;;;12.10;99.90;;;;;;5093818;28;19923;-62
2023/07/02 10:41:24;;;;;;;;;;;12.10;99.90;;;;;;5094093;28;19961;-65
2023/07/02 10:43:50;;;;;;;;;;;12.00;99.90;;;;;;5093684;28;19908;-62
2023/07/02 10:46:20;;;;;;;;;;;12.00;99.90;;;;;;5093652;28;20019;-63
2023/07/02 10:48:56;;;;;;;;;;;11.90;99.90;;;;;;5093586;28;19919;-62
2023/07/02 10:51:28;;;;;;;;;;;11.90;99.90;;;;;;5093850;28;19913;-63
2023/07/02 10:54:04;;;;;;;;;;;11.90;99.90;;;;;;5093495;28;19961;-62
2023/07/02 10:56:31;;;;;;;;;;;11.80;99.90;;;;;;5093710;28;20254;-63
2023/07/02 10:58:58;;;;;;;;;;;11.70;99.90;;;;;;5093684;28;19959;-62
2023/07/02 11:01:29;;;;;;;;;;;11.70;99.90;;;;;;5093647;28;20018;-63
2023/07/02 11:03:59;;;;;;;;;;;11.60;99.90;;;;;;5075197;28;19908;-62
2023/07/02 11:06:26;;;;;;;;;;;11.60;99.90;;;;;;5093297;28;20357;-63
2023/07/02 11:08:55;;;;;;;;;;;11.60;99.90;;;;;;5093334;28;19908;-63
2023/07/02 11:11:22;;;;;;;;;;;11.60;99.90;;;;;;5093266;28;20002;-64
2023/07/02 11:13:50;;;;;;;;;;;11.50;99.90;;;;;;5093397;28;19909;-63
2023/07/02 11:16:20;;;;;;;;;;;11.50;99.90;;;;;;5093310;28;20029;-64
2023/07/02 11:18:46;;;;;;;;;;;11.50;99.90;;;;;;5092903;28;19916;-64
2023/07/02 11:21:13;;;;;;;;;;;11.40;99.90;;;;;;5093459;28;19912;-62
2023/07/02 11:23:40;;;;;;;;;;;11.40;99.90;;;;;;5092947;28;19908;-64
2023/07/02 11:26:06;;;;;;;;;;;11.40;99.90;;;;;;5092872;28;20358;-62
2023/07/02 11:28:34;;;;;;;;;;;11.40;99.90;;;;;;5092133;28;19912;-62
2023/07/02 11:31:05;;;;;;;;;;;11.40;99.90;;;;;;5092787;28;19915;-66
2023/07/02 11:33:35;;;;;;;;;;;11.50;99.90;;;;;;5092576;28;19947;-65
2023/07/02 11:36:01;;;;;;;;;;;11.60;99.90;;;;;;5092921;28;19952;-66
2023/07/02 11:38:28;;;;;;;;;;;11.60;99.90;;;;;;5092604;28;20456;-65
2023/07/02 11:40:54;;;;;;;;;;;11.80;99.90;;;;;;5092957;28;19954;-63
2023/07/02 11:43:21;;;;;;;;;;;11.80;99.90;;;;;;5092946;28;19908;-65
2023/07/02 11:45:48;;;;;;;;;;;11.80;99.90;;;;;;5092792;28;20315;-63
2023/07/02 11:48:14;;;;;;;;;;;12.00;99.90;;;;;;5074896;28;19957;-64
2023/07/02 11:50:41;;;;;;;;;;;11.90;99.90;;;;;;5092675;28;19908;-62
2023/07/02 11:53:08;;;;;;;;;;;12.00;99.90;;;;;;5092753;28;19908;-63
2023/07/02 11:55:35;;;;;;;;;;;12.00;99.90;;;;;;5092657;28;19908;-64
2023/07/02 11:58:01;;;;;;;;;;;12.00;99.90;;;;;;5092678;28;20353;-64
2023/07/02 12:00:28;;;;;;;;;;;12.10;99.90;;;;;;5093069;28;20348;-63
2023/07/02 12:02:55;;;;;;;;;;;12.10;99.90;;;;;;5092496;28;20225;-64
2023/07/02 12:05:21;;;;;;;;;;;12.20;99.90;;;;;;5092735;28;19961;-64
2023/07/02 12:07:48;;;;;;;;;;;12.20;99.90;;;;;;5092504;28;20360;-64
2023/07/02 12:10:15;;;;;;;;;;;12.20;99.90;;;;;;5092843;28;19919;-63
2023/07/02 12:12:41;;;;;;;;;;;12.20;99.90;;;;;;5092759;28;20276;-67
2023/07/02 12:15:08;;;;;;;;;;;12.10;99.90;;;;;;5092700;28;19923;-63
2023/07/02 12:17:35;;;;;;;;;;;12.10;99.90;;;;;;5092590;28;19914;-64
2023/07/02 12:20:01;;;;;;;;;;;12.10;99.90;;;;;;5092605;28;19908;-64
2023/07/02 12:22:28;;;;;;;;;;;12.20;99.90;;;;;;5092665;28;20443;-66
2023/07/02 12:24:57;;;;;;;;;;;12.10;99.90;;;;;;5092412;28;19908;-64
2023/07/02 12:27:25;;;;;;;;;;;12.00;99.90;;;;;;5092576;28;19919;-62
2023/07/02 12:29:51;;;;;;;;;;;12.10;99.90;;;;;;5074536;28;20276;-64
2023/07/02 12:32:18;;;;;;;;;;;12.00;99.90;;;;;;5092447;28;19908;-63
2023/07/02 12:34:45;;;;;;;;;;;12.00;99.90;;;;;;5092656;28;19908;-62
2023/07/02 12:37:13;;;;;;;;;;;12.10;99.90;;;;;;5092529;28;19908;-64
2023/07/02 12:39:40;;;;;;;;;;;12.20;99.90;;;;;;5093749;28;19920;-64
2023/07/02 12:42:07;;;;;;;;;;;12.20;99.90;;;;;;5096082;28;19935;-62
2023/07/02 12:44:33;;;;;;;;;;;12.20;99.90;;;;;;5096077;28;19964;-64
2023/07/02 12:47:00;;;;;;;;;;;12.20;99.90;;;;;;5096237;28;19915;-62
2023/07/02 12:49:26;;;;;;;;;;;12.20;99.90;;;;;;5095977;28;19915;-62
2023/07/02 12:51:53;;;;;;;;;;;12.30;99.90;;;;;;5095876;28;19965;-63
2023/07/02 12:54:20;;;;;;;;;;;12.30;99.90;;;;;;5096103;28;20412;-62
2023/07/02 12:56:46;;;;;;;;;;;12.30;99.90;;;;;;5096114;28;20000;-64
2023/07/02 12:59:15;;;;;;;;;;;12.20;99.90;;;;;;5095921;28;19927;-64
2023/07/02 13:01:41;;;;;;;;;;;12.20;99.90;;;;;;5095728;28;19913;-63
2023/07/02 13:04:08;;;;;;;;;;;12.20;99.90;;;;;;5095937;28;19908;-63
2023/07/02 13:06:39;;;;;;;;;;;12.10;99.90;;;;;;5095824;28;20270;-62
2023/07/02 13:09:07;;;;;;;;;;;12.10;99.90;;;;;;5095694;28;19915;-64
2023/07/02 13:11:33;;;;;;;;;;;12.20;99.90;;;;;;5095717;28;19967;-63
2023/07/02 13:14:00;;;;;;;;;;;12.10;99.90;;;;;;5095528;28;19908;-65
2023/07/02 13:16:26;;;;;;;;;;;12.10;99.90;;;;;;5095550;28;19943;-62
2023/07/02 13:18:56;;;;;;;;;;;12.10;99.90;;;;;;5095101;28;19916;-63
2023/07/02 13:21:23;;;;;;;;;;;12.10;99.90;;;;;;5096008;28;19908;-64
2023/07/02 13:23:49;;;;;;;;;;;12.10;99.90;;;;;;5095651;28;19908;-63
2023/07/02 13:26:16;;;;;;;;;;;12.10;99.90;;;;;;5095502;28;19912;-62
2023/07/02 13:28:43;;;;;;;;;;;12.00;99.90;;;;;;5095264;28;19915;-63
2023/07/02 13:31:11;;;;;;;;;;;12.00;99.90;;;;;;5095252;28;19930;-62
2023/07/02 13:33:39;;;;;;;;;;;12.00;99.90;;;;;;5095179;28;20041;-63
2023/07/02 13:36:06;;;;;;;;;;;12.10;99.90;;;;;;5095193;28;20272;-63
2023/07/02 13:38:32;;;;;;;;;;;12.20;99.90;;;;;;5095153;28;19916;-63
2023/07/02 13:40:59;;;;;;;;;;;12.20;99.90;;;;;;5095361;28;20353;-66
2023/07/02 13:43:26;;;;;;;;;;;12.10;99.90;;;;;;5094925;28;19915;-65
2023/07/02 13:45:53;;;;;;;;;;;12.10;99.90;;;;;;5095083;28;19928;-63
2023/07/02 13:48:19;;;;;;;;;;;12.10;99.90;;;;;;5095273;28;20304;-63
2023/07/02 13:50:46;;;;;;;;;;;12.10;99.90;;;;;;5094239;28;19914;-62
2023/07/02 13:53:13;;;;;;;;;;;12.10;99.90;;;;;;5094944;28;19947;-62
2023/07/02 13:55:39;;;;;;;;;;;12.00;99.90;;;;;;5094850;28;19923;-63
2023/07/02 13:58:06;;;;;;;;;;;12.00;99.90;;;;;;5094965;28;19916;-63
2023/07/02 14:00:32;;;;;;;;;;;12.00;99.90;;;;;;5094778;28;20379;-63
2023/07/02 14:02:59;;;;;;;;;;;12.10;99.90;;;;;;5094755;28;19908;-65
2023/07/02 14:05:26;;;;;;;;;;;12.00;99.90;;;;;;5094620;28;19909;-64
2023/07/02 14:07:53;;;;;;;;;;;12.10;99.90;;;;;;5094855;28;19908;-63
2023/07/02 14:10:20;;;;;;;;;;;12.00;99.90;;;;;;5094220;28;19912;-62
2023/07/02 14:12:46;;;;;;;;;;;12.00;99.90;;;;;;5094516;28;19912;-63
2023/07/02 14:15:13;;;;;;;;;;;11.90;99.90;;;;;;5094422;28;19916;-62
2023/07/02 14:17:40;;;;;;;;;;;11.90;99.90;;;;;;5094107;28;19977;-64